createdAt,value
2023-02-16T00:00:25.154Z,33.47
2023-02-16T00:03:17.455Z,34.20
2023-02-16T00:05:47.684Z,32.88
2023-02-16T00:08:17.072Z,33.42
2023-02-16T00:11:08.322Z,34.45
2023-02-16T00:13:45.450Z,34.65
2023-02-16T00:16:18.388Z,34.22
2023-02-16T00:18:48.385Z,35.63
2023-02-16T00:21:18.809Z,35.47
2023-02-16T00:23:48.881Z,34.65
2023-02-16T00:26:20.496Z,34.92
2023-02-16T00:28:52.333Z,35.08
2023-02-16T00:31:27.502Z,36.80
2023-02-16T00:33:57.811Z,35.55
2023-02-16T00:36:27.695Z,33.20
2023-02-16T00:38:57.018Z,35.88
2023-02-16T00:41:44.823Z,35.17
2023-02-16T00:44:18.556Z,32.00
2023-02-16T00:46:49.866Z,36.13
2023-02-16T00:49:20.971Z,34.92
2023-02-16T00:51:51.318Z,32.03
2023-02-16T00:54:21.182Z,29.98
2023-02-16T00:56:51.161Z,32.92
2023-02-16T00:59:23.664Z,34.92
2023-02-16T01:01:54.722Z,36.38
2023-02-16T01:04:25.729Z,32.97
2023-02-16T01:07:12.672Z,33.10
2023-02-16T01:09:59.454Z,38.63
2023-02-16T01:12:30.901Z,35.85
2023-02-16T01:15:00.826Z,36.13
2023-02-16T01:17:34.362Z,38.03
2023-02-16T01:20:04.121Z,34.90
2023-02-16T01:22:36.673Z,33.88
2023-02-16T01:25:06.218Z,36.22
2023-02-16T01:27:37.858Z,32.55
2023-02-16T01:30:12.533Z,35.83
2023-02-16T01:32:43.656Z,34.13
2023-02-16T01:35:13.070Z,34.33
2023-02-16T01:37:42.803Z,32.55
2023-02-16T01:40:24.778Z,35.70
2023-02-16T01:43:02.828Z,34.60
2023-02-16T01:45:36.163Z,37.85
2023-02-16T01:48:12.702Z,35.60
2023-02-16T01:50:49.972Z,36.65
2023-02-16T01:53:28.176Z,34.75
2023-02-16T01:56:03.038Z,33.33
2023-02-16T01:58:38.641Z,30.55
2023-02-16T02:01:43.270Z,33.92
2023-02-16T02:04:48.168Z,33.55
2023-02-16T02:07:26.122Z,32.42
2023-02-16T02:10:03.225Z,32.67
2023-02-16T02:12:41.023Z,32.65
2023-02-16T02:15:12.603Z,31.58
2023-02-16T02:17:41.899Z,33.03
2023-02-16T02:20:21.122Z,31.35
2023-02-16T02:23:34.167Z,29.10
2023-02-16T02:26:44.920Z,32.80
2023-02-16T02:29:43.488Z,32.10
2023-02-16T02:32:24.317Z,30.10
2023-02-16T02:35:04.932Z,31.70
2023-02-16T02:37:46.766Z,34.65
2023-02-16T02:40:28.212Z,35.28
2023-02-16T02:43:06.080Z,31.38
2023-02-16T02:45:43.231Z,32.63
2023-02-16T02:48:12.851Z,31.33
2023-02-16T02:51:07.642Z,36.55
2023-02-16T02:56:31.280Z,32.95
2023-02-16T02:59:23.245Z,32.78
2023-02-16T03:01:59.388Z,31.95
2023-02-16T03:04:31.956Z,31.02
2023-02-16T03:07:04.447Z,30.13
2023-02-16T03:09:33.975Z,32.63
2023-02-16T03:12:22.788Z,31.88
2023-02-16T03:14:55.844Z,32.90
2023-02-16T03:17:51.312Z,32.42
2023-02-16T03:20:39.008Z,38.17
2023-02-16T03:23:27.110Z,37.00
2023-02-16T03:26:14.526Z,29.80
2023-02-16T03:29:03.475Z,31.58
2023-02-16T03:36:41.040Z,28.40
2023-02-16T03:39:10.852Z,33.05
2023-02-16T03:41:43.465Z,30.50
2023-02-16T03:44:13.090Z,34.10
2023-02-16T03:46:43.311Z,34.35
2023-02-16T03:49:12.793Z,30.17
2023-02-16T03:51:43.683Z,32.13
2023-02-16T03:54:13.470Z,33.80
2023-02-16T03:56:43.011Z,28.88
2023-02-16T03:59:12.163Z,31.42
2023-02-16T04:01:41.735Z,30.88
2023-02-16T04:04:11.096Z,32.15
2023-02-16T04:06:42.743Z,27.73
2023-02-16T04:09:12.150Z,29.02
2023-02-16T04:11:59.247Z,29.48
2023-02-16T04:14:28.616Z,29.95
2023-02-16T04:16:58.112Z,27.92
2023-02-16T04:19:27.329Z,30.48
2023-02-16T04:21:58.350Z,28.35
2023-02-16T04:24:27.564Z,27.83
2023-02-16T04:26:57.172Z,27.95
2023-02-16T04:29:26.573Z,29.02
2023-02-16T04:31:56.162Z,28.55
2023-02-16T04:34:25.416Z,28.70
2023-02-16T04:36:54.908Z,28.17
2023-02-16T04:39:25.557Z,27.40
2023-02-16T04:41:55.042Z,51.85
2023-02-16T04:44:24.309Z,32.13
2023-02-16T04:46:53.832Z,29.65
2023-02-16T04:49:23.220Z,30.15
2023-02-16T04:51:52.693Z,27.63
2023-02-16T04:54:21.920Z,26.35
2023-02-16T04:56:52.838Z,29.00
2023-02-16T04:59:22.048Z,33.25
2023-02-16T05:01:51.714Z,37.00
2023-02-16T05:04:21.049Z,29.42
2023-02-16T05:06:50.498Z,28.42
2023-02-16T05:09:20.199Z,28.02
2023-02-16T05:12:08.359Z,27.90
2023-02-16T05:14:45.182Z,25.02
2023-02-16T05:17:17.724Z,27.77
2023-02-16T05:19:49.298Z,25.17
2023-02-16T05:22:19.044Z,27.20
2023-02-16T05:24:48.671Z,26.00
2023-02-16T05:27:21.619Z,24.20
2023-02-16T05:29:51.262Z,25.35
2023-02-16T05:32:21.184Z,26.80
2023-02-16T05:34:50.416Z,27.52
2023-02-16T05:37:20.516Z,26.15
2023-02-16T05:39:49.935Z,26.65
2023-02-16T05:42:20.769Z,26.95
2023-02-16T05:44:49.959Z,23.35
2023-02-16T05:47:19.424Z,26.60
2023-02-16T05:49:48.824Z,25.02
2023-02-16T05:52:18.377Z,27.65
2023-02-16T05:54:47.625Z,25.70
2023-02-16T05:57:17.103Z,25.58
2023-02-16T05:59:47.864Z,26.60
2023-02-16T06:02:17.510Z,26.70
2023-02-16T06:04:46.672Z,25.85
2023-02-16T06:07:16.144Z,28.23
2023-02-16T06:09:45.362Z,25.80
2023-02-16T06:12:14.873Z,28.30
2023-02-16T06:14:44.294Z,25.83
2023-02-16T06:17:15.419Z,27.25
2023-02-16T06:19:44.639Z,30.35
2023-02-16T06:22:14.152Z,29.38
2023-02-16T06:24:43.526Z,26.75
2023-02-16T06:27:13.029Z,26.20
2023-02-16T06:29:42.440Z,26.50
2023-02-16T06:32:12.129Z,26.02
2023-02-16T06:34:42.707Z,26.80
2023-02-16T06:37:12.364Z,27.67
2023-02-16T06:39:41.575Z,25.42
2023-02-16T06:42:11.180Z,36.05
2023-02-16T06:44:44.334Z,30.60
2023-02-16T06:47:14.003Z,28.65
2023-02-16T06:49:44.509Z,24.52
2023-02-16T06:52:14.129Z,24.13
2023-02-16T06:54:43.312Z,30.75
2023-02-16T06:57:12.799Z,29.70
2023-02-16T06:59:42.514Z,26.17
2023-02-16T07:02:12.485Z,25.13
2023-02-16T07:04:43.075Z,23.38
2023-02-16T07:07:12.571Z,24.73
2023-02-16T07:09:41.776Z,26.05
2023-02-16T07:12:11.363Z,24.58
2023-02-16T07:14:41.624Z,26.42
2023-02-16T07:17:12.616Z,26.02
2023-02-16T07:19:43.237Z,24.80
2023-02-16T07:22:12.798Z,25.42
2023-02-16T07:24:42.051Z,26.48
2023-02-16T07:27:11.691Z,23.67
2023-02-16T07:29:41.121Z,28.42
2023-02-16T07:32:10.706Z,23.50
2023-02-16T07:34:40.036Z,22.52
2023-02-16T07:37:10.918Z,23.25
2023-02-16T07:39:40.175Z,21.52
2023-02-16T07:42:09.676Z,22.15
2023-02-16T07:44:38.958Z,22.10
2023-02-16T07:47:08.520Z,23.35
2023-02-16T07:49:37.664Z,21.55
2023-02-16T07:52:07.690Z,21.67
2023-02-16T07:54:38.342Z,20.52
2023-02-16T07:57:08.407Z,21.73
2023-02-16T07:59:37.625Z,20.75
2023-02-16T08:02:07.550Z,23.50
2023-02-16T08:04:37.101Z,19.55
2023-02-16T08:07:06.556Z,21.23
2023-02-16T08:09:37.120Z,22.83
2023-02-16T08:12:09.088Z,24.20
2023-02-16T08:14:38.426Z,20.48
2023-02-16T08:17:08.891Z,20.85
2023-02-16T08:19:38.249Z,19.95
2023-02-16T08:22:09.153Z,19.77
2023-02-16T08:24:40.049Z,21.58
2023-02-16T08:27:09.559Z,21.90
2023-02-16T08:29:38.800Z,22.05
2023-02-16T08:32:08.970Z,20.42
2023-02-16T08:34:41.535Z,20.10
2023-02-16T08:37:14.439Z,21.15
2023-02-16T08:39:45.693Z,20.23
2023-02-16T08:42:15.235Z,21.45
2023-02-16T08:44:44.749Z,19.23
2023-02-16T08:47:16.940Z,21.65
2023-02-16T08:49:46.244Z,20.33
2023-02-16T08:52:15.828Z,20.13
2023-02-16T08:54:46.430Z,21.13
2023-02-16T08:57:16.080Z,22.63
2023-02-16T08:59:45.261Z,20.67
2023-02-16T09:02:14.808Z,21.83
2023-02-16T09:04:44.100Z,22.50
2023-02-16T09:07:14.066Z,26.85
2023-02-16T09:09:44.570Z,23.00
2023-02-16T09:12:15.782Z,22.33
2023-02-16T09:14:44.986Z,23.05
2023-02-16T09:17:14.525Z,21.25
2023-02-16T09:19:44.695Z,21.15
2023-02-16T09:22:14.404Z,21.65
2023-02-16T09:24:43.846Z,21.02
2023-02-16T09:27:15.052Z,20.55
2023-02-16T09:29:44.683Z,21.10
2023-02-16T09:32:15.498Z,21.75
2023-02-16T09:34:46.340Z,21.17
2023-02-16T09:37:15.953Z,20.08
2023-02-16T09:39:45.123Z,19.83
2023-02-16T09:42:30.577Z,20.65
2023-02-16T09:45:07.512Z,22.13
2023-02-16T09:47:40.916Z,20.80
2023-02-16T09:50:38.341Z,19.33
2023-02-16T09:53:16.418Z,20.60
2023-02-16T09:55:54.548Z,20.65
2023-02-16T09:58:31.565Z,21.02
2023-02-16T10:01:08.599Z,20.75
2023-02-16T10:03:51.581Z,19.55
2023-02-16T10:06:35.090Z,20.83
2023-02-16T10:09:08.999Z,20.38
2023-02-16T10:11:46.773Z,20.20
2023-02-16T10:14:31.797Z,20.52
2023-02-16T10:17:12.446Z,20.80
2023-02-16T10:19:48.022Z,18.90
2023-02-16T10:22:22.563Z,19.23
2023-02-16T10:25:00.511Z,19.50
2023-02-16T10:27:38.351Z,19.60
2023-02-16T10:30:18.096Z,20.23
2023-02-16T10:32:57.681Z,20.38
2023-02-16T10:35:38.187Z,22.05
2023-02-16T10:38:13.752Z,22.60
2023-02-16T10:40:55.081Z,20.88
2023-02-16T10:43:38.864Z,21.40
2023-02-16T10:46:17.053Z,20.17
2023-02-16T10:48:47.699Z,20.58
2023-02-16T10:51:20.582Z,21.35
2023-02-16T10:53:54.691Z,21.83
2023-02-16T10:56:42.696Z,21.57
2023-02-16T10:59:17.765Z,21.20
2023-02-16T11:01:52.107Z,21.02
2023-02-16T11:04:39.929Z,22.77
2023-02-16T11:07:12.221Z,23.02
2023-02-16T11:09:43.192Z,22.98
2023-02-16T11:12:19.374Z,24.25
2023-02-16T11:14:53.686Z,21.90
2023-02-16T11:17:26.273Z,26.90
2023-02-16T11:20:01.636Z,23.55
2023-02-16T11:22:35.005Z,24.75
2023-02-16T11:25:25.710Z,23.73
2023-02-16T11:27:57.307Z,24.83
2023-02-16T11:30:35.279Z,24.52
2023-02-16T11:33:21.912Z,24.38
2023-02-16T11:35:51.351Z,25.27
2023-02-16T11:38:32.997Z,21.38
2023-02-16T11:41:04.621Z,21.55
2023-02-16T11:43:38.882Z,22.50
2023-02-16T11:46:16.856Z,21.63
2023-02-16T11:48:48.464Z,21.02
2023-02-16T11:51:30.664Z,20.58
2023-02-16T11:54:03.946Z,22.13
2023-02-16T11:56:35.315Z,22.23
2023-02-16T11:59:08.517Z,22.77
2023-02-16T12:02:29.317Z,23.65
2023-02-16T12:05:17.015Z,25.52
2023-02-16T12:07:58.342Z,26.23
2023-02-16T12:10:38.745Z,24.70
2023-02-16T12:13:19.486Z,23.67
2023-02-16T12:15:55.981Z,25.77
2023-02-16T12:18:37.825Z,25.77
2023-02-16T12:21:19.403Z,24.20
2023-02-16T12:24:03.228Z,27.17
2023-02-16T12:26:41.633Z,27.10
2023-02-16T12:29:31.522Z,29.17
2023-02-16T12:32:16.054Z,28.83
2023-02-16T12:34:59.794Z,28.23
2023-02-16T12:37:38.190Z,29.50
2023-02-16T12:40:18.340Z,29.10
2023-02-16T12:43:04.191Z,28.77
2023-02-16T12:45:37.526Z,29.50
2023-02-16T12:48:29.667Z,31.02
2023-02-16T12:51:00.251Z,28.17
2023-02-16T12:53:39.760Z,28.20
2023-02-16T12:56:13.840Z,29.15
2023-02-16T12:58:46.592Z,28.73
2023-02-16T13:01:21.857Z,31.75
2023-02-16T13:03:56.624Z,34.03
2023-02-16T13:06:32.875Z,37.72
2023-02-16T13:09:12.758Z,34.40
2023-02-16T13:11:49.619Z,38.05
2023-02-16T13:14:22.236Z,35.92
2023-02-16T13:16:56.095Z,34.50
2023-02-16T13:19:25.910Z,35.13
2023-02-16T13:22:23.029Z,34.88
2023-02-16T13:25:08.024Z,36.15
2023-02-16T13:27:48.006Z,35.22
2023-02-16T13:30:45.906Z,36.17
2023-02-16T13:33:37.089Z,35.65
2023-02-16T13:36:26.468Z,36.65
2023-02-16T13:39:43.564Z,34.05
2023-02-16T13:42:49.149Z,35.17
2023-02-16T13:45:22.329Z,34.47
2023-02-16T13:47:55.158Z,35.90
2023-02-16T13:50:31.261Z,36.05
2023-02-16T13:53:16.956Z,35.25
2023-02-16T13:58:35.771Z,33.50
2023-02-16T14:01:38.744Z,34.08
2023-02-16T14:04:14.040Z,36.20
2023-02-16T14:06:43.925Z,35.88
2023-02-16T14:09:34.765Z,34.83
2023-02-16T14:12:15.556Z,35.75
2023-02-16T14:15:00.411Z,33.85
2023-02-16T14:17:33.594Z,35.22
2023-02-16T14:20:06.646Z,35.25
2023-02-16T14:22:42.547Z,33.10
2023-02-16T14:25:35.219Z,34.33
2023-02-16T14:28:07.032Z,32.85
2023-02-16T14:30:45.938Z,32.60
2023-02-16T14:33:24.503Z,32.67
2023-02-16T14:36:13.862Z,35.25
2023-02-16T14:38:47.226Z,32.35
2023-02-16T14:41:32.297Z,33.38
2023-02-16T14:44:27.928Z,35.00
2023-02-16T14:47:15.557Z,33.03
2023-02-16T14:50:09.365Z,34.40
2023-02-16T14:53:13.449Z,33.85
2023-02-16T14:56:16.834Z,35.15
2023-02-16T14:58:56.326Z,34.47
2023-02-16T15:01:27.484Z,33.33
2023-02-16T15:03:59.088Z,33.35
2023-02-16T15:06:33.902Z,33.13
2023-02-16T15:09:07.311Z,31.10
2023-02-16T15:12:00.410Z,31.10
2023-02-16T15:14:32.593Z,30.77
2023-02-16T15:17:01.962Z,34.88
2023-02-16T15:19:33.400Z,37.25
2023-02-16T15:22:18.971Z,31.92
2023-02-16T15:27:29.446Z,31.85
2023-02-16T15:30:09.481Z,34.60
2023-02-16T15:32:39.243Z,32.08
2023-02-16T15:35:23.186Z,32.78
2023-02-16T15:38:02.408Z,33.03
2023-02-16T15:40:33.060Z,31.33
2023-02-16T15:43:13.346Z,33.05
2023-02-16T15:45:42.978Z,31.02
2023-02-16T15:48:17.390Z,32.75
2023-02-16T15:50:49.012Z,34.47
2023-02-16T15:53:26.139Z,33.25
2023-02-16T15:55:56.194Z,33.72
2023-02-16T15:58:25.656Z,34.47
2023-02-16T16:00:55.467Z,34.47
2023-02-16T16:03:24.924Z,33.78
2023-02-16T16:06:01.483Z,33.97
2023-02-16T16:08:32.078Z,34.90
2023-02-16T16:11:02.445Z,32.83
2023-02-16T16:13:33.110Z,34.88
2023-02-16T16:16:04.846Z,36.08
2023-02-16T16:18:43.336Z,34.80
2023-02-16T16:21:21.778Z,33.53
2023-02-16T16:24:03.609Z,36.15
2023-02-16T16:26:36.418Z,33.67
2023-02-16T16:29:25.998Z,33.03
2023-02-16T16:31:56.498Z,34.60
2023-02-16T16:34:39.164Z,36.38
2023-02-16T16:37:25.210Z,38.22
2023-02-16T16:40:04.451Z,38.35
2023-02-16T16:42:36.962Z,34.80
2023-02-16T16:45:20.484Z,33.88
2023-02-16T16:47:53.118Z,36.13
2023-02-16T16:50:34.708Z,35.28
2023-02-16T16:53:43.070Z,35.63
2023-02-16T16:56:14.007Z,37.95
2023-02-16T16:58:44.015Z,36.08
2023-02-16T17:01:15.985Z,37.72
2023-02-16T17:03:45.912Z,38.25
2023-02-16T17:06:15.453Z,36.50
2023-02-16T17:08:47.208Z,36.25
2023-02-16T17:11:25.030Z,35.25
2023-02-16T17:13:55.532Z,36.13
2023-02-16T17:16:28.395Z,35.47
2023-02-16T17:18:58.197Z,34.53
2023-02-16T17:21:27.484Z,36.50
2023-02-16T17:23:58.735Z,35.47
2023-02-16T17:26:28.617Z,37.35
2023-02-16T17:28:58.287Z,35.95
2023-02-16T17:31:27.720Z,41.53
2023-02-16T17:33:57.949Z,39.70
2023-02-16T17:36:28.570Z,38.80
2023-02-16T17:38:59.604Z,35.10
2023-02-16T17:41:30.950Z,39.35
2023-02-16T17:44:00.776Z,40.47
2023-02-16T17:46:31.781Z,40.97
2023-02-16T17:49:01.441Z,43.13
2023-02-16T17:51:32.271Z,40.75
2023-02-16T17:54:06.392Z,41.70
2023-02-16T17:56:37.407Z,42.55
2023-02-16T17:59:07.413Z,43.05
2023-02-16T18:01:37.788Z,42.33
2023-02-16T18:04:07.724Z,43.97
2023-02-16T18:06:37.426Z,42.60
2023-02-16T18:09:09.165Z,45.80
2023-02-16T18:11:38.769Z,48.08
2023-02-16T18:14:08.356Z,45.00
2023-02-16T18:16:37.586Z,48.78
2023-02-16T18:19:09.053Z,50.95
2023-02-16T18:21:38.896Z,47.85
2023-02-16T18:24:09.977Z,46.60
2023-02-16T18:26:39.565Z,44.97
2023-02-16T18:29:11.089Z,46.47
2023-02-16T18:31:41.184Z,45.72
2023-02-16T18:34:11.836Z,44.50
2023-02-16T18:36:41.496Z,44.33
2023-02-16T18:39:12.812Z,43.92
2023-02-16T18:41:42.228Z,43.17
2023-02-16T18:44:12.136Z,43.13
2023-02-16T18:46:41.524Z,46.75
2023-02-16T18:49:11.174Z,45.28
2023-02-16T18:51:41.284Z,44.88
2023-02-16T18:54:12.354Z,45.78
2023-02-16T18:56:42.429Z,46.13
2023-02-16T18:59:12.362Z,46.90
2023-02-16T19:01:42.207Z,47.72
2023-02-16T19:04:12.355Z,59.95
2023-02-16T19:06:43.082Z,63.80
2023-02-16T19:09:14.458Z,59.55
2023-02-16T19:11:44.073Z,58.53
2023-02-16T19:14:13.827Z,61.45
2023-02-16T19:16:43.512Z,56.75
2023-02-16T19:19:13.409Z,64.50
2023-02-16T19:21:44.757Z,59.60
2023-02-16T19:24:15.890Z,56.33
2023-02-16T19:26:45.262Z,59.83
2023-02-16T19:29:15.521Z,55.78
2023-02-16T19:31:45.265Z,57.17
2023-02-16T19:34:15.091Z,56.25
2023-02-16T19:36:46.569Z,54.38
2023-02-16T19:39:18.193Z,52.55
2023-02-16T19:41:47.992Z,54.13
2023-02-16T19:44:17.968Z,54.30
2023-02-16T19:46:47.384Z,53.35
2023-02-16T19:49:17.542Z,53.53
2023-02-16T19:51:47.820Z,47.25
2023-02-16T19:54:18.668Z,46.72
2023-02-16T19:56:48.025Z,44.25
2023-02-16T19:59:17.954Z,44.08
2023-02-16T20:01:47.489Z,41.58
2023-02-16T20:04:17.170Z,42.25
2023-02-16T20:06:47.413Z,43.25
2023-02-16T20:09:18.864Z,40.42
2023-02-16T20:11:49.852Z,41.85
2023-02-16T20:14:20.019Z,38.63
2023-02-16T20:16:50.420Z,40.63
2023-02-16T20:19:20.375Z,39.70
2023-02-16T20:21:49.864Z,38.78
2023-02-16T20:24:23.585Z,40.78
2023-02-16T20:26:52.890Z,42.00
2023-02-16T20:29:22.987Z,41.20
2023-02-16T20:31:55.567Z,40.20
2023-02-16T20:34:27.662Z,38.63
2023-02-16T20:36:57.336Z,40.15
2023-02-16T20:39:28.740Z,43.83
2023-02-16T20:41:59.394Z,41.28
2023-02-16T20:44:29.117Z,42.03
2023-02-16T20:47:00.451Z,40.55
2023-02-16T20:49:30.224Z,39.28
2023-02-16T20:51:59.604Z,40.85
2023-02-16T20:54:31.256Z,40.00
2023-02-16T20:57:00.526Z,40.65
2023-02-16T20:59:30.598Z,39.90
2023-02-16T21:02:00.281Z,39.28
2023-02-16T21:04:30.364Z,40.80
2023-02-16T21:06:59.594Z,40.38
2023-02-16T21:09:30.882Z,39.25
2023-02-16T21:12:00.195Z,37.08
2023-02-16T21:14:29.760Z,37.72
2023-02-16T21:16:59.032Z,36.08
2023-02-16T21:19:28.697Z,36.38
2023-02-16T21:21:58.251Z,37.47
2023-02-16T21:24:29.180Z,38.15
2023-02-16T21:26:58.590Z,35.13
2023-02-16T21:29:28.277Z,36.72
2023-02-16T21:31:57.515Z,36.88
2023-02-16T21:34:27.227Z,36.28
2023-02-16T21:36:56.518Z,36.22
2023-02-16T21:39:46.190Z,36.92
2023-02-16T21:42:15.798Z,37.70
2023-02-16T21:44:49.998Z,36.40
2023-02-16T21:47:37.281Z,36.33
2023-02-16T21:50:07.496Z,37.83
2023-02-16T21:52:36.847Z,36.53
2023-02-16T21:55:24.762Z,37.10
2023-02-16T21:57:58.814Z,37.33
2023-02-16T22:00:28.833Z,37.42
2023-02-16T22:02:58.672Z,38.20
2023-02-16T22:05:28.278Z,34.67
2023-02-16T22:07:58.802Z,37.42
2023-02-16T22:10:28.912Z,38.65
2023-02-16T22:13:00.055Z,35.85
2023-02-16T22:15:29.934Z,36.97
2023-02-16T22:17:59.351Z,34.45
2023-02-16T22:20:28.905Z,36.42
2023-02-16T22:22:58.348Z,36.40
2023-02-16T22:25:27.795Z,36.30
2023-02-16T22:27:58.484Z,35.33
2023-02-16T22:30:27.993Z,36.60
2023-02-16T22:32:57.300Z,37.03
2023-02-16T22:35:26.810Z,36.17
2023-02-16T22:37:56.102Z,36.65
2023-02-16T22:40:25.816Z,36.88
2023-02-16T22:42:55.069Z,37.20
2023-02-16T22:45:26.085Z,36.35
2023-02-16T22:47:55.250Z,36.38
2023-02-16T22:50:24.963Z,35.72
2023-02-16T22:52:55.026Z,35.55
2023-02-16T22:55:24.985Z,35.05
2023-02-16T22:57:54.542Z,33.53
2023-02-16T23:00:25.546Z,34.38
2023-02-16T23:02:54.911Z,36.33
2023-02-16T23:05:24.549Z,37.15
2023-02-16T23:07:53.789Z,33.63
2023-02-16T23:10:23.323Z,37.30
2023-02-16T23:12:52.510Z,36.97
2023-02-16T23:15:23.093Z,36.65
2023-02-16T23:17:53.752Z,36.03
2023-02-16T23:20:23.544Z,35.45
2023-02-16T23:22:52.938Z,36.92
2023-02-16T23:25:34.529Z,34.78
2023-02-16T23:28:06.064Z,35.95
2023-02-16T23:30:35.655Z,36.08
2023-02-16T23:33:06.300Z,35.30
2023-02-16T23:35:35.915Z,33.05
2023-02-16T23:38:05.331Z,36.30
2023-02-16T23:40:34.942Z,37.58
2023-02-16T23:43:04.198Z,36.28
2023-02-16T23:45:33.820Z,36.53
2023-02-16T23:48:03.270Z,35.22
2023-02-16T23:50:34.162Z,34.83
2023-02-16T23:53:03.681Z,35.75
2023-02-16T23:55:33.281Z,34.97
2023-02-16T23:58:02.565Z,33.65
